Long Island City, NY (11105)

2:29 PM EDT on March 31, 2015 (GMT -0400)
APRSWXNET | | Change Station
CLOSE
Current Station
Personal Weather Station
Location: Long Island City, NY
Elevation: 41 ft
Nearby Weather Stations

Elev 41 ft 40.78 °N, 73.92 °W | Updated 33 minutes ago

Overcast
Overcast
42 °F
Feels Like 42 °F
N
0
Wind Variable Wind from West
Gusts 3.0 mph

Today
High -- | Low -- °F
--% Chance of Precip.
Yesterday
High -- | Low -- °F
Precip. -- in
6:41 AM 7:19 PM
Waxing Gibbous, 88% visible
Pressure 29.79 in
Visibility 6.0 miles
Clouds Few 1800 ft
Mostly Cloudy 2400 ft
Overcast 3200 ft
Windchill 42 °F
Dew Point 32 °F
Humidity 67%
Rainfall in
Snow Depth Not available.
UV 2 out of 12
Pollen 6.40 out of 12
Air Quality Not available.
Flu Activity Not available.
SPECI KLGA 311801Z 29005KT 6SM -RA FEW018 BKN024 OVC032 05/M01 A2979 RMK AO2 P0000

More Conditions Fewer Conditions

Pressure 29.79 in
Visibility 6.0 miles
Clouds Few 1800 ft
Mostly Cloudy 2400 ft
Overcast 3200 ft
Windchill 42 °F
Dew Point 32 °F
Humidity 67%
Rainfall in
Snow Depth Not available.
UV 2 out of 12
Pollen 6.40 out of 12
Air Quality Not available.
Flu Activity Not available.
SPECI KLGA 311801Z 29005KT 6SM -RA FEW018 BKN024 OVC032 05/M01 A2979 RMK AO2 P0000

More Conditions Fewer Conditions

10-Day Weather Forecast

Almanac

Astronomy

Mar. 31, 2015 Rise Set
Actual Time
Civil Twilight
Nautical Twilight
Astronomical Twilight
Moon
Length of Visible Light
Length of Day
Tomorrow will be .
, % of the Moon is Illuminated

Today's Extremes

State Highs State Lows

Community

WunderPhotos

Upload Photos

1,809,787 photos uploaded!

WunderBlogs® & News

Nearby

Air Quality

  Air Quality AQ Index Pollutant
Not available.

Snow Depth

Station Depth Elevation

Earthquake Activity

City Distance Mag. Time & Date
Minimum magnitude displayed is 2.5.

Coastal Water Temperatures

Place Temperature

Stations

Nearby Weather Stations

Station Location Temp. Windchill Dew Point Humidity Wind Precip. Elev Updated Type